Castries, Saint Lucia
Current Conditions -  °F | °C
As of 8:00 PM on Tuesday 25 Nov 2014 (Local Time) from TLPL Reporting Station
Rain Showers Rain Showers  
Wind Chill: 81°   Ceiling: 2000
Heat Index: 85°   Visibility: 5mi
Dew Point: 73°   Wind: 23mph
Humidity: 79%   Direction: 90°E
Pressure: 29.94"   Gusts: NA
Location:  14.03°N, 60.98°W
Report Text: TLPL 260000Z 09020KT 8000 -SHRA BKN020 27/23 Q1014 TEMPO SHRA
Loading
Personal Weather Stations






























Interactive Weather Map New forecast layout! Learn more

10-Day Weather Forecast

Advertisements
Track Severe Weather on mobile